sensor_id;sensor_type;location;lat;lon;timestamp;temperature;humidity
15099;DHT22;33900;53.640;9.942;2023-06-19T00:01:55;23.60;62.00
15099;DHT22;33900;53.640;9.942;2023-06-19T00:04:21;23.60;62.10
15099;DHT22;33900;53.640;9.942;2023-06-19T00:06:46;23.60;62.20
15099;DHT22;33900;53.640;9.942;2023-06-19T00:09:13;23.50;62.00
15099;DHT22;33900;53.640;9.942;2023-06-19T00:11:39;23.60;62.20
15099;DHT22;33900;53.640;9.942;2023-06-19T00:14:05;23.60;62.30
15099;DHT22;33900;53.640;9.942;2023-06-19T00:16:30;23.60;62.40
15099;DHT22;33900;53.640;9.942;2023-06-19T00:18:56;23.60;62.60
15099;DHT22;33900;53.640;9.942;2023-06-19T00:21:22;23.60;62.70
15099;DHT22;33900;53.640;9.942;2023-06-19T00:23:51;23.70;63.10
15099;DHT22;33900;53.640;9.942;2023-06-19T00:26:18;23.70;63.20
15099;DHT22;33900;53.640;9.942;2023-06-19T00:28:44;23.70;63.40
15099;DHT22;33900;53.640;9.942;2023-06-19T00:31:13;23.80;64.10
15099;DHT22;33900;53.640;9.942;2023-06-19T00:33:43;23.80;64.20
15099;DHT22;33900;53.640;9.942;2023-06-19T00:36:12;23.70;64.30
15099;DHT22;33900;53.640;9.942;2023-06-19T00:38:38;23.70;64.20
15099;DHT22;33900;53.640;9.942;2023-06-19T00:41:04;23.80;64.40
15099;DHT22;33900;53.640;9.942;2023-06-19T00:43:31;23.70;64.20
15099;DHT22;33900;53.640;9.942;2023-06-19T00:45:59;23.70;64.10
15099;DHT22;33900;53.640;9.942;2023-06-19T00:48:26;23.70;63.80
15099;DHT22;33900;53.640;9.942;2023-06-19T00:50:52;23.70;63.90
15099;DHT22;33900;53.640;9.942;2023-06-19T00:53:18;23.70;63.60
15099;DHT22;33900;53.640;9.942;2023-06-19T00:55:44;23.70;63.50
15099;DHT22;33900;53.640;9.942;2023-06-19T00:58:10;23.70;63.50
15099;DHT22;33900;53.640;9.942;2023-06-19T01:00:39;23.70;63.40
15099;DHT22;33900;53.640;9.942;2023-06-19T01:03:06;23.70;63.30
15099;DHT22;33900;53.640;9.942;2023-06-19T01:05:32;23.70;63.30
15099;DHT22;33900;53.640;9.942;2023-06-19T01:07:59;23.70;63.50
15099;DHT22;33900;53.640;9.942;2023-06-19T01:10:27;23.70;63.50
15099;DHT22;33900;53.640;9.942;2023-06-19T01:13:00;23.70;63.50
15099;DHT22;33900;53.640;9.942;2023-06-19T01:15:27;23.70;64.30
15099;DHT22;33900;53.640;9.942;2023-06-19T01:17:54;23.70;63.30
15099;DHT22;33900;53.640;9.942;2023-06-19T01:20:21;23.70;63.30
15099;DHT22;33900;53.640;9.942;2023-06-19T01:22:47;23.70;63.10
15099;DHT22;33900;53.640;9.942;2023-06-19T01:25:13;23.70;62.90
15099;DHT22;33900;53.640;9.942;2023-06-19T01:27:39;23.60;62.80
15099;DHT22;33900;53.640;9.942;2023-06-19T01:30:05;23.70;62.90
15099;DHT22;33900;53.640;9.942;2023-06-19T01:32:34;23.70;62.90
15099;DHT22;33900;53.640;9.942;2023-06-19T01:35:02;23.60;62.80
15099;DHT22;33900;53.640;9.942;2023-06-19T01:37:29;23.60;63.00
15099;DHT22;33900;53.640;9.942;2023-06-19T01:39:58;23.60;63.00
15099;DHT22;33900;53.640;9.942;2023-06-19T01:42:25;23.60;63.00
15099;DHT22;33900;53.640;9.942;2023-06-19T01:44:51;23.60;63.10
15099;DHT22;33900;53.640;9.942;2023-06-19T01:47:17;23.60;63.00
15099;DHT22;33900;53.640;9.942;2023-06-19T01:49:46;23.50;63.00
15099;DHT22;33900;53.640;9.942;2023-06-19T01:52:11;23.50;63.10
15099;DHT22;33900;53.640;9.942;2023-06-19T01:54:37;23.50;63.10
15099;DHT22;33900;53.640;9.942;2023-06-19T01:57:02;23.50;63.20
15099;DHT22;33900;53.640;9.942;2023-06-19T01:59:30;23.50;63.20
15099;DHT22;33900;53.640;9.942;2023-06-19T02:01:55;23.50;63.20
15099;DHT22;33900;53.640;9.942;2023-06-19T02:04:21;23.50;63.20
15099;DHT22;33900;53.640;9.942;2023-06-19T02:06:46;23.50;63.00
15099;DHT22;33900;53.640;9.942;2023-06-19T02:09:14;23.40;62.90
15099;DHT22;33900;53.640;9.942;2023-06-19T02:11:39;23.40;62.70
15099;DHT22;33900;53.640;9.942;2023-06-19T02:14:05;23.40;62.60
15099;DHT22;33900;53.640;9.942;2023-06-19T02:16:31;23.40;62.50
15099;DHT22;33900;53.640;9.942;2023-06-19T02:18:56;23.40;62.50
15099;DHT22;33900;53.640;9.942;2023-06-19T02:21:22;23.40;62.20
15099;DHT22;33900;53.640;9.942;2023-06-19T02:23:51;23.30;62.00
15099;DHT22;33900;53.640;9.942;2023-06-19T02:26:16;23.30;61.90
15099;DHT22;33900;53.640;9.942;2023-06-19T02:28:42;23.30;62.70
15099;DHT22;33900;53.640;9.942;2023-06-19T02:31:07;23.30;61.90
15099;DHT22;33900;53.640;9.942;2023-06-19T02:33:33;23.30;61.80
15099;DHT22;33900;53.640;9.942;2023-06-19T02:35:59;23.30;61.80
15099;DHT22;33900;53.640;9.942;2023-06-19T02:38:25;23.30;61.70
15099;DHT22;33900;53.640;9.942;2023-06-19T02:40:51;23.30;61.70
15099;DHT22;33900;53.640;9.942;2023-06-19T02:43:17;23.30;61.80
15099;DHT22;33900;53.640;9.942;2023-06-19T02:45:43;23.30;61.90
15099;DHT22;33900;53.640;9.942;2023-06-19T02:48:09;23.20;62.00
15099;DHT22;33900;53.640;9.942;2023-06-19T02:50:35;23.30;62.00
15099;DHT22;33900;53.640;9.942;2023-06-19T02:53:01;23.30;62.00
15099;DHT22;33900;53.640;9.942;2023-06-19T02:55:27;23.30;62.20
15099;DHT22;33900;53.640;9.942;2023-06-19T02:57:52;23.30;62.40
15099;DHT22;33900;53.640;9.942;2023-06-19T03:00:18;23.30;62.40
15099;DHT22;33900;53.640;9.942;2023-06-19T03:02:44;23.30;62.20
15099;DHT22;33900;53.640;9.942;2023-06-19T03:05:12;23.30;62.20
15099;DHT22;33900;53.640;9.942;2023-06-19T03:07:41;23.20;62.20
15099;DHT22;33900;53.640;9.942;2023-06-19T03:10:07;23.30;63.20
15099;DHT22;33900;53.640;9.942;2023-06-19T03:12:33;23.30;62.10
15099;DHT22;33900;53.640;9.942;2023-06-19T03:14:58;23.20;61.80
15099;DHT22;33900;53.640;9.942;2023-06-19T03:17:26;23.20;61.90
15099;DHT22;33900;53.640;9.942;2023-06-19T03:19:52;23.20;62.00
15099;DHT22;33900;53.640;9.942;2023-06-19T03:22:19;23.20;62.10
15099;DHT22;33900;53.640;9.942;2023-06-19T03:24:45;23.30;62.20
15099;DHT22;33900;53.640;9.942;2023-06-19T03:27:17;23.10;62.00
15099;DHT22;33900;53.640;9.942;2023-06-19T03:29:43;23.20;62.00
15099;DHT22;33900;53.640;9.942;2023-06-19T03:32:11;23.20;62.10
15099;DHT22;33900;53.640;9.942;2023-06-19T03:34:37;23.20;62.80
15099;DHT22;33900;53.640;9.942;2023-06-19T03:37:06;23.20;61.90
15099;DHT22;33900;53.640;9.942;2023-06-19T03:39:35;23.20;62.00
15099;DHT22;33900;53.640;9.942;2023-06-19T03:42:07;23.20;62.00
15099;DHT22;33900;53.640;9.942;2023-06-19T03:44:33;23.20;62.10
15099;DHT22;33900;53.640;9.942;2023-06-19T03:46:59;23.10;62.10
15099;DHT22;33900;53.640;9.942;2023-06-19T03:49:24;23.20;62.20
15099;DHT22;33900;53.640;9.942;2023-06-19T03:51:50;23.10;62.20
15099;DHT22;33900;53.640;9.942;2023-06-19T03:54:15;23.20;62.40
15099;DHT22;33900;53.640;9.942;2023-06-19T03:56:41;23.10;62.30
15099;DHT22;33900;53.640;9.942;2023-06-19T03:59:06;23.10;62.40
15099;DHT22;33900;53.640;9.942;2023-06-19T04:01:32;23.10;62.40
15099;DHT22;33900;53.640;9.942;2023-06-19T04:03:58;23.10;62.40
15099;DHT22;33900;53.640;9.942;2023-06-19T04:06:25;23.10;62.40
15099;DHT22;33900;53.640;9.942;2023-06-19T04:08:51;23.10;62.40
15099;DHT22;33900;53.640;9.942;2023-06-19T04:11:17;23.10;63.30
15099;DHT22;33900;53.640;9.942;2023-06-19T04:13:44;23.10;62.70
15099;DHT22;33900;53.640;9.942;2023-06-19T04:16:11;23.10;62.70
15099;DHT22;33900;53.640;9.942;2023-06-19T04:18:37;23.10;62.80
15099;DHT22;33900;53.640;9.942;2023-06-19T04:21:03;23.10;62.80
15099;DHT22;33900;53.640;9.942;2023-06-19T04:23:31;23.10;62.70
15099;DHT22;33900;53.640;9.942;2023-06-19T04:25:56;23.10;62.50
15099;DHT22;33900;53.640;9.942;2023-06-19T04:28:22;23.00;62.40
15099;DHT22;33900;53.640;9.942;2023-06-19T04:30:48;23.00;62.50
15099;DHT22;33900;53.640;9.942;2023-06-19T04:33:14;23.00;62.50
15099;DHT22;33900;53.640;9.942;2023-06-19T04:35:39;23.00;62.60
15099;DHT22;33900;53.640;9.942;2023-06-19T04:38:06;23.00;62.70
15099;DHT22;33900;53.640;9.942;2023-06-19T04:40:31;23.00;62.70
15099;DHT22;33900;53.640;9.942;2023-06-19T04:42:57;23.00;62.70
15099;DHT22;33900;53.640;9.942;2023-06-19T04:45:23;23.00;62.70
15099;DHT22;33900;53.640;9.942;2023-06-19T04:47:48;23.00;62.70
15099;DHT22;33900;53.640;9.942;2023-06-19T04:50:14;23.00;62.80
15099;DHT22;33900;53.640;9.942;2023-06-19T04:52:44;23.00;62.90
15099;DHT22;33900;53.640;9.942;2023-06-19T04:55:09;23.00;62.90
15099;DHT22;33900;53.640;9.942;2023-06-19T04:57:35;22.90;62.80
15099;DHT22;33900;53.640;9.942;2023-06-19T05:00:05;23.00;62.90
15099;DHT22;33900;53.640;9.942;2023-06-19T05:02:35;23.00;63.00
15099;DHT22;33900;53.640;9.942;2023-06-19T05:05:01;23.00;63.10
15099;DHT22;33900;53.640;9.942;2023-06-19T05:07:31;23.00;63.20
15099;DHT22;33900;53.640;9.942;2023-06-19T05:09:57;23.00;63.20
15099;DHT22;33900;53.640;9.942;2023-06-19T05:12:24;23.00;63.30
15099;DHT22;33900;53.640;9.942;2023-06-19T05:14:49;23.00;63.30
15099;DHT22;33900;53.640;9.942;2023-06-19T05:17:15;23.00;63.20
15099;DHT22;33900;53.640;9.942;2023-06-19T05:19:41;23.00;63.30
15099;DHT22;33900;53.640;9.942;2023-06-19T05:22:08;23.00;63.40
15099;DHT22;33900;53.640;9.942;2023-06-19T05:24:33;23.00;63.50
15099;DHT22;33900;53.640;9.942;2023-06-19T05:26:59;23.00;63.70
15099;DHT22;33900;53.640;9.942;2023-06-19T05:29:25;23.00;63.60
15099;DHT22;33900;53.640;9.942;2023-06-19T05:31:51;23.00;63.60
15099;DHT22;33900;53.640;9.942;2023-06-19T05:34:17;23.00;63.80
15099;DHT22;33900;53.640;9.942;2023-06-19T05:36:42;23.00;63.60
15099;DHT22;33900;53.640;9.942;2023-06-19T05:39:10;23.00;63.50
15099;DHT22;33900;53.640;9.942;2023-06-19T05:41:36;22.90;63.30
15099;DHT22;33900;53.640;9.942;2023-06-19T05:44:01;22.90;63.30
15099;DHT22;33900;53.640;9.942;2023-06-19T05:46:27;22.90;63.40
15099;DHT22;33900;53.640;9.942;2023-06-19T05:48:52;22.90;63.40
15099;DHT22;33900;53.640;9.942;2023-06-19T05:51:20;22.90;63.40
15099;DHT22;33900;53.640;9.942;2023-06-19T05:53:46;22.90;63.60
15099;DHT22;33900;53.640;9.942;2023-06-19T05:56:12;22.90;63.80
15099;DHT22;33900;53.640;9.942;2023-06-19T05:58:37;23.00;64.10
15099;DHT22;33900;53.640;9.942;2023-06-19T06:01:04;23.00;64.20
15099;DHT22;33900;53.640;9.942;2023-06-19T06:03:30;23.00;64.40
15099;DHT22;33900;53.640;9.942;2023-06-19T06:05:57;23.00;64.30
15099;DHT22;33900;53.640;9.942;2023-06-19T06:08:31;23.00;64.40
15099;DHT22;33900;53.640;9.942;2023-06-19T06:10:56;23.00;64.50
15099;DHT22;33900;53.640;9.942;2023-06-19T06:13:22;23.00;64.40
15099;DHT22;33900;53.640;9.942;2023-06-19T06:15:48;23.10;64.70
15099;DHT22;33900;53.640;9.942;2023-06-19T06:18:13;23.00;64.60
15099;DHT22;33900;53.640;9.942;2023-06-19T06:20:39;23.00;64.60
15099;DHT22;33900;53.640;9.942;2023-06-19T06:23:04;23.10;65.00
15099;DHT22;33900;53.640;9.942;2023-06-19T06:25:30;23.00;65.30
15099;DHT22;33900;53.640;9.942;2023-06-19T06:27:56;23.00;66.10
15099;DHT22;33900;53.640;9.942;2023-06-19T06:30:21;23.00;66.00
15099;DHT22;33900;53.640;9.942;2023-06-19T06:32:48;23.00;66.20
15099;DHT22;33900;53.640;9.942;2023-06-19T06:35:15;22.90;66.20
15099;DHT22;33900;53.640;9.942;2023-06-19T06:37:41;22.90;66.60
15099;DHT22;33900;53.640;9.942;2023-06-19T06:40:07;22.90;66.70
15099;DHT22;33900;53.640;9.942;2023-06-19T06:42:36;22.90;66.70
15099;DHT22;33900;53.640;9.942;2023-06-19T06:45:03;22.90;67.00
15099;DHT22;33900;53.640;9.942;2023-06-19T06:47:28;22.90;67.30
15099;DHT22;33900;53.640;9.942;2023-06-19T06:49:54;22.90;67.60
15099;DHT22;33900;53.640;9.942;2023-06-19T06:52:20;22.90;68.00
15099;DHT22;33900;53.640;9.942;2023-06-19T06:54:45;22.90;68.10
15099;DHT22;33900;53.640;9.942;2023-06-19T06:57:11;22.90;68.40
15099;DHT22;33900;53.640;9.942;2023-06-19T06:59:37;22.90;68.60
15099;DHT22;33900;53.640;9.942;2023-06-19T07:02:02;22.90;68.60
15099;DHT22;33900;53.640;9.942;2023-06-19T07:04:28;22.90;68.60
15099;DHT22;33900;53.640;9.942;2023-06-19T07:06:54;22.90;69.00
15099;DHT22;33900;53.640;9.942;2023-06-19T07:09:19;22.90;68.90
15099;DHT22;33900;53.640;9.942;2023-06-19T07:11:46;22.90;68.90
15099;DHT22;33900;53.640;9.942;2023-06-19T07:14:12;22.90;69.00
15099;DHT22;33900;53.640;9.942;2023-06-19T07:16:37;22.90;69.10
15099;DHT22;33900;53.640;9.942;2023-06-19T07:19:03;22.90;69.10
15099;DHT22;33900;53.640;9.942;2023-06-19T07:21:28;22.90;69.10
15099;DHT22;33900;53.640;9.942;2023-06-19T07:23:55;22.90;69.10
15099;DHT22;33900;53.640;9.942;2023-06-19T07:26:21;22.90;69.00
15099;DHT22;33900;53.640;9.942;2023-06-19T07:28:47;22.90;69.10
15099;DHT22;33900;53.640;9.942;2023-06-19T07:31:13;22.90;68.90
15099;DHT22;33900;53.640;9.942;2023-06-19T07:33:40;22.90;68.90
15099;DHT22;33900;53.640;9.942;2023-06-19T07:36:08;22.90;69.00
15099;DHT22;33900;53.640;9.942;2023-06-19T07:38:39;22.90;69.10
15099;DHT22;33900;53.640;9.942;2023-06-19T07:41:05;22.90;69.10
15099;DHT22;33900;53.640;9.942;2023-06-19T07:43:32;23.00;69.40
15099;DHT22;33900;53.640;9.942;2023-06-19T07:45:58;23.00;69.20
15099;DHT22;33900;53.640;9.942;2023-06-19T07:48:25;23.00;69.00
15099;DHT22;33900;53.640;9.942;2023-06-19T07:50:50;23.00;69.00
15099;DHT22;33900;53.640;9.942;2023-06-19T07:53:16;23.00;69.30
15099;DHT22;33900;53.640;9.942;2023-06-19T07:55:41;23.00;69.10
15099;DHT22;33900;53.640;9.942;2023-06-19T07:58:07;23.00;69.10
15099;DHT22;33900;53.640;9.942;2023-06-19T08:00:33;23.00;69.00
15099;DHT22;33900;53.640;9.942;2023-06-19T08:02:58;23.00;69.00
15099;DHT22;33900;53.640;9.942;2023-06-19T08:05:24;23.00;69.40
15099;DHT22;33900;53.640;9.942;2023-06-19T08:07:50;23.10;69.40
15099;DHT22;33900;53.640;9.942;2023-06-19T08:10:15;23.10;69.20
15099;DHT22;33900;53.640;9.942;2023-06-19T08:12:43;23.10;69.30
15099;DHT22;33900;53.640;9.942;2023-06-19T08:15:09;23.20;69.60
15099;DHT22;33900;53.640;9.942;2023-06-19T08:17:35;23.20;69.20
15099;DHT22;33900;53.640;9.942;2023-06-19T08:20:01;23.30;69.20
15099;DHT22;33900;53.640;9.942;2023-06-19T08:22:26;23.30;69.00
15099;DHT22;33900;53.640;9.942;2023-06-19T08:24:52;23.40;69.00
15099;DHT22;33900;53.640;9.942;2023-06-19T08:27:17;23.50;69.10
15099;DHT22;33900;53.640;9.942;2023-06-19T08:29:43;23.60;68.90
15099;DHT22;33900;53.640;9.942;2023-06-19T08:32:09;23.70;68.80
15099;DHT22;33900;53.640;9.942;2023-06-19T08:34:35;23.70;68.50
15099;DHT22;33900;53.640;9.942;2023-06-19T08:37:05;23.70;68.20
15099;DHT22;33900;53.640;9.942;2023-06-19T08:39:32;23.80;68.20
15099;DHT22;33900;53.640;9.942;2023-06-19T08:41:58;23.90;68.40
15099;DHT22;33900;53.640;9.942;2023-06-19T08:44:23;24.00;68.10
15099;DHT22;33900;53.640;9.942;2023-06-19T08:46:49;24.20;67.50
15099;DHT22;33900;53.640;9.942;2023-06-19T08:49:15;24.30;67.50
15099;DHT22;33900;53.640;9.942;2023-06-19T08:51:42;24.40;67.60
15099;DHT22;33900;53.640;9.942;2023-06-19T08:54:08;24.50;66.90
15099;DHT22;33900;53.640;9.942;2023-06-19T08:56:36;24.60;67.00
15099;DHT22;33900;53.640;9.942;2023-06-19T08:59:36;24.70;66.60
15099;DHT22;33900;53.640;9.942;2023-06-19T09:01:55;24.80;66.50
15099;DHT22;33900;53.640;9.942;2023-06-19T09:04:28;25.00;66.60
15099;DHT22;33900;53.640;9.942;2023-06-19T09:06:55;25.10;66.00
15099;DHT22;33900;53.640;9.942;2023-06-19T09:09:22;25.20;66.00
15099;DHT22;33900;53.640;9.942;2023-06-19T09:14:35;25.40;65.80
15099;DHT22;33900;53.640;9.942;2023-06-19T09:17:05;25.50;66.00
15099;DHT22;33900;53.640;9.942;2023-06-19T09:19:32;25.70;64.40
15099;DHT22;33900;53.640;9.942;2023-06-19T09:22:03;25.70;64.20
15099;DHT22;33900;53.640;9.942;2023-06-19T09:24:39;25.80;63.70
15099;DHT22;33900;53.640;9.942;2023-06-19T09:27:12;25.90;63.70
15099;DHT22;33900;53.640;9.942;2023-06-19T09:29:42;25.90;63.90
15099;DHT22;33900;53.640;9.942;2023-06-19T09:34:44;26.00;61.80
15099;DHT22;33900;53.640;9.942;2023-06-19T09:37:09;26.10;62.10
15099;DHT22;33900;53.640;9.942;2023-06-19T09:39:36;26.10;60.90
15099;DHT22;33900;53.640;9.942;2023-06-19T09:42:02;26.10;60.70
15099;DHT22;33900;53.640;9.942;2023-06-19T09:44:31;26.10;61.30
15099;DHT22;33900;53.640;9.942;2023-06-19T09:46:56;26.10;61.30
15099;DHT22;33900;53.640;9.942;2023-06-19T09:49:25;26.20;61.50
15099;DHT22;33900;53.640;9.942;2023-06-19T09:51:53;26.20;61.40
15099;DHT22;33900;53.640;9.942;2023-06-19T09:54:19;26.20;61.10
15099;DHT22;33900;53.640;9.942;2023-06-19T09:56:47;26.30;60.30
15099;DHT22;33900;53.640;9.942;2023-06-19T09:59:16;26.30;59.20
15099;DHT22;33900;53.640;9.942;2023-06-19T10:01:42;26.20;59.10
15099;DHT22;33900;53.640;9.942;2023-06-19T10:04:08;26.20;58.70
15099;DHT22;33900;53.640;9.942;2023-06-19T10:06:42;26.20;58.50
15099;DHT22;33900;53.640;9.942;2023-06-19T10:09:09;26.20;58.80
15099;DHT22;33900;53.640;9.942;2023-06-19T10:11:51;26.20;58.90
15099;DHT22;33900;53.640;9.942;2023-06-19T10:14:17;26.10;59.10
15099;DHT22;33900;53.640;9.942;2023-06-19T10:16:44;26.20;59.50
15099;DHT22;33900;53.640;9.942;2023-06-19T10:19:16;26.20;59.70
15099;DHT22;33900;53.640;9.942;2023-06-19T10:21:48;26.20;59.80
15099;DHT22;33900;53.640;9.942;2023-06-19T10:24:15;26.30;59.60
15099;DHT22;33900;53.640;9.942;2023-06-19T10:26:43;26.30;59.60
15099;DHT22;33900;53.640;9.942;2023-06-19T10:29:15;26.30;59.70
15099;DHT22;33900;53.640;9.942;2023-06-19T10:31:41;26.30;59.80
15099;DHT22;33900;53.640;9.942;2023-06-19T10:34:08;26.30;60.00
15099;DHT22;33900;53.640;9.942;2023-06-19T10:36:34;26.40;60.30
15099;DHT22;33900;53.640;9.942;2023-06-19T10:39:00;26.40;60.30
15099;DHT22;33900;53.640;9.942;2023-06-19T10:41:25;26.50;60.40
15099;DHT22;33900;53.640;9.942;2023-06-19T10:46:46;26.50;60.40
15099;DHT22;33900;53.640;9.942;2023-06-19T10:49:11;26.60;60.60
15099;DHT22;33900;53.640;9.942;2023-06-19T10:51:39;26.60;60.60
15099;DHT22;33900;53.640;9.942;2023-06-19T10:54:05;26.60;60.60
15099;DHT22;33900;53.640;9.942;2023-06-19T10:56:31;26.70;60.70
15099;DHT22;33900;53.640;9.942;2023-06-19T10:58:58;26.70;60.80
15099;DHT22;33900;53.640;9.942;2023-06-19T11:01:31;26.70;60.90
15099;DHT22;33900;53.640;9.942;2023-06-19T11:04:01;26.80;60.90
15099;DHT22;33900;53.640;9.942;2023-06-19T11:06:28;26.80;60.90
15099;DHT22;33900;53.640;9.942;2023-06-19T11:08:54;26.90;60.90
15099;DHT22;33900;53.640;9.942;2023-06-19T11:11:20;26.90;60.90
15099;DHT22;33900;53.640;9.942;2023-06-19T11:13:45;26.90;60.80
15099;DHT22;33900;53.640;9.942;2023-06-19T11:16:13;27.00;60.50
15099;DHT22;33900;53.640;9.942;2023-06-19T11:18:39;27.00;60.60
15099;DHT22;33900;53.640;9.942;2023-06-19T11:21:05;27.10;60.60
15099;DHT22;33900;53.640;9.942;2023-06-19T11:23:30;27.10;60.60
15099;DHT22;33900;53.640;9.942;2023-06-19T11:26:03;27.20;60.50
15099;DHT22;33900;53.640;9.942;2023-06-19T11:28:29;27.30;60.40
15099;DHT22;33900;53.640;9.942;2023-06-19T11:30:58;27.30;59.70
15099;DHT22;33900;53.640;9.942;2023-06-19T11:33:25;27.30;58.70
15099;DHT22;33900;53.640;9.942;2023-06-19T11:35:51;27.40;58.90
15099;DHT22;33900;53.640;9.942;2023-06-19T11:38:24;27.50;59.20
15099;DHT22;33900;53.640;9.942;2023-06-19T11:40:51;27.60;59.30
15099;DHT22;33900;53.640;9.942;2023-06-19T11:43:24;27.70;59.40
15099;DHT22;33900;53.640;9.942;2023-06-19T11:45:50;27.70;59.40
15099;DHT22;33900;53.640;9.942;2023-06-19T11:48:23;27.70;59.40
15099;DHT22;33900;53.640;9.942;2023-06-19T11:50:49;27.80;59.20
15099;DHT22;33900;53.640;9.942;2023-06-19T11:53:16;27.80;59.20
15099;DHT22;33900;53.640;9.942;2023-06-19T11:55:42;27.80;58.90
15099;DHT22;33900;53.640;9.942;2023-06-19T11:58:09;27.70;58.80
15099;DHT22;33900;53.640;9.942;2023-06-19T12:00:38;27.80;58.90
15099;DHT22;33900;53.640;9.942;2023-06-19T12:03:04;27.90;59.10
15099;DHT22;33900;53.640;9.942;2023-06-19T12:05:29;28.00;59.10
15099;DHT22;33900;53.640;9.942;2023-06-19T12:07:55;28.00;59.10
15099;DHT22;33900;53.640;9.942;2023-06-19T12:10:21;28.10;58.90
15099;DHT22;33900;53.640;9.942;2023-06-19T12:12:47;28.20;58.70
15099;DHT22;33900;53.640;9.942;2023-06-19T12:15:18;28.30;58.10
15099;DHT22;33900;53.640;9.942;2023-06-19T12:17:45;28.30;58.10
15099;DHT22;33900;53.640;9.942;2023-06-19T12:20:11;28.20;58.00
15099;DHT22;33900;53.640;9.942;2023-06-19T12:22:40;28.20;57.90
15099;DHT22;33900;53.640;9.942;2023-06-19T12:25:06;28.20;58.10
15099;DHT22;33900;53.640;9.942;2023-06-19T12:27:32;28.10;58.00
15099;DHT22;33900;53.640;9.942;2023-06-19T12:29:58;28.10;58.00
15099;DHT22;33900;53.640;9.942;2023-06-19T12:32:23;28.00;57.60
15099;DHT22;33900;53.640;9.942;2023-06-19T12:34:50;28.00;57.70
15099;DHT22;33900;53.640;9.942;2023-06-19T12:37:19;28.00;57.80
15099;DHT22;33900;53.640;9.942;2023-06-19T12:39:46;28.00;57.80
15099;DHT22;33900;53.640;9.942;2023-06-19T12:42:11;28.00;57.80
15099;DHT22;33900;53.640;9.942;2023-06-19T12:44:40;28.10;57.90
15099;DHT22;33900;53.640;9.942;2023-06-19T12:47:06;28.00;57.90
15099;DHT22;33900;53.640;9.942;2023-06-19T12:49:32;28.00;58.00
15099;DHT22;33900;53.640;9.942;2023-06-19T12:51:58;28.00;58.00
15099;DHT22;33900;53.640;9.942;2023-06-19T12:54:23;28.00;58.10
15099;DHT22;33900;53.640;9.942;2023-06-19T12:56:49;27.90;58.20
15099;DHT22;33900;53.640;9.942;2023-06-19T12:59:15;28.00;58.30
15099;DHT22;33900;53.640;9.942;2023-06-19T13:01:41;28.00;58.40
15099;DHT22;33900;53.640;9.942;2023-06-19T13:04:07;27.90;58.40
15099;DHT22;33900;53.640;9.942;2023-06-19T13:06:33;27.90;58.30
15099;DHT22;33900;53.640;9.942;2023-06-19T13:08:58;27.90;58.40
15099;DHT22;33900;53.640;9.942;2023-06-19T13:11:24;27.90;58.30
15099;DHT22;33900;53.640;9.942;2023-06-19T13:13:50;27.90;58.40
15099;DHT22;33900;53.640;9.942;2023-06-19T13:16:15;28.00;58.50
15099;DHT22;33900;53.640;9.942;2023-06-19T13:18:41;28.00;58.50
15099;DHT22;33900;53.640;9.942;2023-06-19T13:21:07;28.10;58.50
15099;DHT22;33900;53.640;9.942;2023-06-19T13:23:33;28.10;58.50
15099;DHT22;33900;53.640;9.942;2023-06-19T13:25:58;28.00;58.60
15099;DHT22;33900;53.640;9.942;2023-06-19T13:28:24;28.00;58.50
15099;DHT22;33900;53.640;9.942;2023-06-19T13:30:50;28.00;58.30
15099;DHT22;33900;53.640;9.942;2023-06-19T13:33:15;28.00;58.40
15099;DHT22;33900;53.640;9.942;2023-06-19T13:35:42;28.10;58.70
15099;DHT22;33900;53.640;9.942;2023-06-19T13:38:07;28.10;59.00
15099;DHT22;33900;53.640;9.942;2023-06-19T13:40:39;28.10;59.20
15099;DHT22;33900;53.640;9.942;2023-06-19T13:43:05;28.00;59.50
15099;DHT22;33900;53.640;9.942;2023-06-19T13:45:32;28.00;59.70
15099;DHT22;33900;53.640;9.942;2023-06-19T13:47:57;28.00;59.90
15099;DHT22;33900;53.640;9.942;2023-06-19T13:50:23;28.00;60.00
15099;DHT22;33900;53.640;9.942;2023-06-19T13:52:49;28.10;60.00
15099;DHT22;33900;53.640;9.942;2023-06-19T13:55:15;28.10;60.00
15099;DHT22;33900;53.640;9.942;2023-06-19T13:57:43;28.10;60.50
15099;DHT22;33900;53.640;9.942;2023-06-19T14:00:09;28.10;60.50
15099;DHT22;33900;53.640;9.942;2023-06-19T14:02:39;28.00;60.70
15099;DHT22;33900;53.640;9.942;2023-06-19T14:05:06;28.00;60.90
15099;DHT22;33900;53.640;9.942;2023-06-19T14:07:32;28.00;61.30
15099;DHT22;33900;53.640;9.942;2023-06-19T14:09:59;27.90;61.60
15099;DHT22;33900;53.640;9.942;2023-06-19T14:12:24;27.90;61.70
15099;DHT22;33900;53.640;9.942;2023-06-19T14:14:50;27.90;62.20
15099;DHT22;33900;53.640;9.942;2023-06-19T14:17:17;27.90;62.20
15099;DHT22;33900;53.640;9.942;2023-06-19T14:19:42;27.90;62.70
15099;DHT22;33900;53.640;9.942;2023-06-19T14:22:08;28.00;63.10
15099;DHT22;33900;53.640;9.942;2023-06-19T14:24:34;28.00;63.30
15099;DHT22;33900;53.640;9.942;2023-06-19T14:27:00;27.90;63.00
15099;DHT22;33900;53.640;9.942;2023-06-19T14:29:27;27.90;63.30
15099;DHT22;33900;53.640;9.942;2023-06-19T14:31:53;27.90;63.20
15099;DHT22;33900;53.640;9.942;2023-06-19T14:34:19;27.90;63.60
15099;DHT22;33900;53.640;9.942;2023-06-19T14:36:46;27.80;63.70
15099;DHT22;33900;53.640;9.942;2023-06-19T14:39:14;27.80;63.60
15099;DHT22;33900;53.640;9.942;2023-06-19T14:41:41;27.80;63.70
15099;DHT22;33900;53.640;9.942;2023-06-19T14:44:07;27.80;63.70
15099;DHT22;33900;53.640;9.942;2023-06-19T14:46:33;27.80;63.70
15099;DHT22;33900;53.640;9.942;2023-06-19T14:49:07;27.80;63.70
15099;DHT22;33900;53.640;9.942;2023-06-19T14:51:33;27.80;63.80
15099;DHT22;33900;53.640;9.942;2023-06-19T14:53:59;27.80;63.80
15099;DHT22;33900;53.640;9.942;2023-06-19T14:56:24;27.70;63.90
15099;DHT22;33900;53.640;9.942;2023-06-19T14:58:50;27.70;64.10
15099;DHT22;33900;53.640;9.942;2023-06-19T15:01:15;27.60;64.00
15099;DHT22;33900;53.640;9.942;2023-06-19T15:03:42;27.60;64.10
15099;DHT22;33900;53.640;9.942;2023-06-19T15:06:07;27.60;64.30
15099;DHT22;33900;53.640;9.942;2023-06-19T15:08:33;27.60;64.30
15099;DHT22;33900;53.640;9.942;2023-06-19T15:11:00;27.60;64.10
15099;DHT22;33900;53.640;9.942;2023-06-19T15:13:30;27.60;64.20
15099;DHT22;33900;53.640;9.942;2023-06-19T15:15:55;27.50;64.40
15099;DHT22;33900;53.640;9.942;2023-06-19T15:18:21;27.50;64.50
15099;DHT22;33900;53.640;9.942;2023-06-19T15:20:47;27.50;64.50
15099;DHT22;33900;53.640;9.942;2023-06-19T15:23:12;27.50;64.60
15099;DHT22;33900;53.640;9.942;2023-06-19T15:25:38;27.50;64.60
15099;DHT22;33900;53.640;9.942;2023-06-19T15:28:03;27.50;64.70
15099;DHT22;33900;53.640;9.942;2023-06-19T15:30:29;27.50;64.70
15099;DHT22;33900;53.640;9.942;2023-06-19T15:32:56;27.40;64.60
15099;DHT22;33900;53.640;9.942;2023-06-19T15:35:24;27.40;64.80